KBYG/BYG METAR and TAF weather

Enter ICAO airport designator
Station Type Date Time Source
KBYG METAR 2022/10/01 07:53 UTC NOAA

KBYG 010753Z AUTO 33009KT 10SM FEW005 OVC065 10/08 A3009 RMK AO2 RAE24 SLP160 P0000 T01000083


Station Type Date Time Source
KBYG Decoded METAR 2022/10/01 07:53 UTC NOAA

BUFFALO JOHNSON COUNTY AIRPORT , WY, United States (KBYG) 44-23N 106-43W 1497M
Oct 01, 2022 - 03:53 AM EDT / 2022.10.01 0753 UTC
Wind: from the NNW (330 degrees) at 10 MPH (9 KT):0
Visibility: 10 mile(s):0
Sky conditions: overcast
Precipitation last hour: A trace
Temperature: 50.0 F (10.0 C)
Dew Point: 46.9 F (8.3 C)
Relative Humidity: 89%
Pressure (altimeter): 30.09 in. Hg (1018 hPa)
ob: KBYG 010753Z AUTO 33009KT 10SM FEW005 OVC065 10/08 A3009 RMK AO2 RAE24 SLP160 P0000 T01000083
cycle: 8

Station Type Date Time Source
KBYG TAF UTC NOAA

Error!

Example: see airport list